Cupertino, California
Current Conditions -  °F | °C
As of 2:53 AM on Monday 20 Oct 2014 (Local Time) from KSJC Reporting Station
Overcast Overcast  
Wind Chill: 62°   Ceiling: 1700
Heat Index: 62°   Visibility: 10mi
Dew Point: 57°   Wind: 3mph
Humidity: 84%   Direction: 50°NE
Pressure: 29.92"   Gusts: NA
Location:  37.32°N, 122.02°W
Report Text: KSJC 200953Z AUTO 05003KT 10SM OVC017 17/14 A2992 RMK AO2 SLP132 T01670139
Loading
Personal Weather Stations






























Interactive Weather Map
Tropical Storm Tracking
New forecast layout! Learn more

10-Day Weather Forecast

Advertisements
Track Severe Weather on mobile